createdAt,value
2022-10-11T00:01:12.381Z,3.80
2022-10-11T00:03:41.580Z,3.50
2022-10-11T00:06:12.122Z,4.77
2022-10-11T00:08:40.769Z,4.00
2022-10-11T00:11:10.198Z,3.33
2022-10-11T00:13:40.721Z,3.60
2022-10-11T00:16:11.778Z,3.40
2022-10-11T00:18:40.985Z,3.70
2022-10-11T00:21:12.267Z,3.63
2022-10-11T00:23:41.781Z,4.27
2022-10-11T00:26:11.655Z,3.77
2022-10-11T00:28:42.402Z,3.37
2022-10-11T00:31:11.887Z,3.27
2022-10-11T00:33:40.613Z,4.03
2022-10-11T00:36:14.087Z,4.30
2022-10-11T00:38:42.861Z,4.20
2022-10-11T00:41:11.727Z,3.20
2022-10-11T00:43:42.218Z,3.47
2022-10-11T00:46:29.201Z,3.80
2022-10-11T00:49:03.448Z,3.90
2022-10-11T00:51:43.370Z,3.47
2022-10-11T00:54:16.329Z,4.47
2022-10-11T00:56:49.427Z,3.73
2022-10-11T00:59:22.307Z,3.50
2022-10-11T01:01:52.137Z,4.13
2022-10-11T01:04:21.435Z,3.53
2022-10-11T01:06:52.499Z,3.20
2022-10-11T01:09:23.197Z,3.90
2022-10-11T01:11:52.618Z,3.63
2022-10-11T01:14:51.638Z,3.57
2022-10-11T01:17:26.505Z,4.17
2022-10-11T01:20:27.481Z,3.80
2022-10-11T01:23:32.766Z,4.00
2022-10-11T01:26:34.268Z,3.93
2022-10-11T01:29:12.814Z,3.20
2022-10-11T01:31:46.918Z,3.50
2022-10-11T01:34:19.349Z,4.37
2022-10-11T01:36:51.335Z,4.07
2022-10-11T01:39:25.721Z,3.93
2022-10-11T01:41:56.070Z,4.50
2022-10-11T01:44:25.944Z,3.93
2022-10-11T01:46:56.277Z,4.27
2022-10-11T01:49:25.348Z,5.10
2022-10-11T01:51:56.713Z,4.30
2022-10-11T01:54:57.001Z,3.70
2022-10-11T01:57:43.963Z,3.43
2022-10-11T02:00:15.684Z,5.57
2022-10-11T02:02:55.034Z,4.33
2022-10-11T02:05:30.714Z,3.47
2022-10-11T02:08:10.048Z,4.50
2022-10-11T02:10:42.235Z,3.70
2022-10-11T02:13:13.582Z,5.23
2022-10-11T02:15:43.881Z,3.80
2022-10-11T02:18:17.327Z,4.63
2022-10-11T02:20:46.983Z,4.27
2022-10-11T02:23:19.866Z,4.10
2022-10-11T02:25:50.470Z,4.23
2022-10-11T02:28:23.017Z,4.33
2022-10-11T02:30:52.579Z,4.93
2022-10-11T02:33:27.861Z,4.80
2022-10-11T02:36:00.053Z,3.90
2022-10-11T02:38:32.093Z,3.97
2022-10-11T02:41:07.584Z,4.07
2022-10-11T02:43:40.094Z,4.30
2022-10-11T02:46:09.854Z,3.43
2022-10-11T02:48:40.263Z,4.23
2022-10-11T02:51:14.197Z,3.77
2022-10-11T02:53:42.812Z,3.53
2022-10-11T02:56:12.232Z,4.00
2022-10-11T02:58:40.942Z,3.40
2022-10-11T03:01:09.348Z,4.03
2022-10-11T03:03:39.647Z,3.80
2022-10-11T03:06:09.535Z,3.57
2022-10-11T03:08:38.881Z,3.97
2022-10-11T03:11:07.402Z,3.47
2022-10-11T03:13:36.320Z,3.53
2022-10-11T03:16:05.299Z,3.60
2022-10-11T03:18:33.897Z,3.47
2022-10-11T03:21:04.124Z,3.90
2022-10-11T03:23:32.882Z,3.27
2022-10-11T03:26:01.511Z,3.77
2022-10-11T03:28:30.350Z,3.10
2022-10-11T03:30:59.514Z,4.20
2022-10-11T03:33:28.189Z,3.60
2022-10-11T03:35:57.084Z,3.33
2022-10-11T03:38:27.676Z,3.17
2022-10-11T03:40:56.339Z,4.37
2022-10-11T03:43:26.333Z,4.40
2022-10-11T03:45:55.602Z,4.60
2022-10-11T03:48:25.400Z,4.07
2022-10-11T03:50:54.680Z,3.40
2022-10-11T03:53:24.133Z,3.70
2022-10-11T03:55:55.717Z,4.57
2022-10-11T03:58:25.308Z,3.27
2022-10-11T04:00:55.169Z,3.20
2022-10-11T04:03:24.375Z,3.97
2022-10-11T04:05:53.075Z,3.97
2022-10-11T04:08:21.800Z,4.63
2022-10-11T04:10:50.728Z,4.77
2022-10-11T04:13:21.335Z,4.47
2022-10-11T04:15:49.886Z,4.67
2022-10-11T04:18:18.374Z,4.07
2022-10-11T04:20:47.018Z,3.60
2022-10-11T04:23:15.606Z,4.00
2022-10-11T04:25:45.598Z,3.80
2022-10-11T04:28:14.929Z,4.67
2022-10-11T04:30:45.164Z,5.07
2022-10-11T04:33:13.990Z,4.60
2022-10-11T04:35:42.549Z,3.83
2022-10-11T04:38:11.092Z,4.10
2022-10-11T04:40:39.676Z,3.60
2022-10-11T04:43:08.634Z,3.90
2022-10-11T04:45:37.843Z,4.17
2022-10-11T04:48:08.716Z,3.93
2022-10-11T04:50:37.542Z,4.60
2022-10-11T04:53:09.736Z,4.53
2022-10-11T04:55:38.507Z,3.90
2022-10-11T04:58:07.213Z,4.63
2022-10-11T05:00:35.991Z,4.07
2022-10-11T05:03:05.087Z,3.93
2022-10-11T05:05:34.907Z,4.77
2022-10-11T05:08:03.300Z,4.63
2022-10-11T05:10:32.335Z,4.00
2022-10-11T05:13:00.816Z,4.50
2022-10-11T05:15:30.710Z,4.40
2022-10-11T05:17:59.277Z,3.57
2022-10-11T05:20:28.172Z,5.20
2022-10-11T05:22:58.583Z,4.40
2022-10-11T05:25:27.373Z,4.07
2022-10-11T05:27:56.119Z,3.97
2022-10-11T05:30:25.252Z,4.77
2022-10-11T05:32:53.741Z,4.87
2022-10-11T05:35:22.737Z,4.83
2022-10-11T05:37:51.587Z,4.03
2022-10-11T05:40:22.719Z,5.20
2022-10-11T05:42:51.506Z,5.67
2022-10-11T05:45:20.096Z,4.57
2022-10-11T05:47:49.097Z,4.67
2022-10-11T05:50:21.967Z,4.00
2022-10-11T05:52:54.049Z,4.13
2022-10-11T05:55:24.399Z,4.73
2022-10-11T05:57:54.336Z,4.67
2022-10-11T06:00:22.987Z,5.50
2022-10-11T06:02:51.980Z,5.13
2022-10-11T06:05:21.758Z,3.60
2022-10-11T06:07:50.559Z,5.10
2022-10-11T06:10:19.819Z,6.10
2022-10-11T06:12:49.939Z,5.20
2022-10-11T06:15:19.493Z,4.40
2022-10-11T06:17:49.188Z,5.10
2022-10-11T06:20:17.984Z,3.80
2022-10-11T06:22:46.990Z,4.40
2022-10-11T06:25:18.408Z,3.83
2022-10-11T06:27:47.265Z,3.37
2022-10-11T06:30:17.396Z,3.20
2022-10-11T06:32:45.912Z,2.97
2022-10-11T06:35:14.579Z,2.90
2022-10-11T06:37:43.401Z,3.33
2022-10-11T06:40:13.397Z,2.50
2022-10-11T06:42:42.368Z,2.13
2022-10-11T06:45:11.550Z,2.43
2022-10-11T06:47:41.895Z,2.97
2022-10-11T06:50:10.947Z,2.83
2022-10-11T06:52:39.623Z,2.63
2022-10-11T06:55:09.462Z,2.30
2022-10-11T06:57:38.376Z,2.80
2022-10-11T07:00:12.642Z,2.67
2022-10-11T07:02:43.065Z,2.83
2022-10-11T07:05:12.812Z,2.20
2022-10-11T07:07:41.661Z,2.67
2022-10-11T07:10:11.100Z,2.00
2022-10-11T07:12:39.725Z,2.53
2022-10-11T07:15:10.394Z,2.33
2022-10-11T07:17:39.456Z,2.17
2022-10-11T07:20:10.763Z,2.80
2022-10-11T07:22:40.010Z,3.03
2022-10-11T07:25:09.825Z,1.93
2022-10-11T07:27:38.750Z,2.53
2022-10-11T07:30:09.100Z,2.87
2022-10-11T07:32:38.158Z,3.10
2022-10-11T07:35:07.629Z,3.23
2022-10-11T07:37:37.846Z,2.90
2022-10-11T07:40:11.096Z,2.73
2022-10-11T07:42:40.480Z,2.50
2022-10-11T07:45:09.717Z,3.17
2022-10-11T07:47:38.718Z,4.23
2022-10-11T07:50:08.704Z,2.73
2022-10-11T07:52:38.905Z,3.10
2022-10-11T07:55:08.720Z,2.67
2022-10-11T07:57:38.152Z,2.20
2022-10-11T08:00:08.291Z,2.63
2022-10-11T08:02:40.608Z,2.90
2022-10-11T08:05:09.998Z,2.80
2022-10-11T08:07:40.535Z,3.33
2022-10-11T08:10:10.779Z,2.77
2022-10-11T08:12:39.559Z,3.00
2022-10-11T08:15:09.085Z,2.63
2022-10-11T08:17:37.958Z,3.13
2022-10-11T08:20:07.721Z,2.97
2022-10-11T08:22:36.031Z,2.43
2022-10-11T08:25:06.869Z,2.53
2022-10-11T08:27:36.466Z,2.70
2022-10-11T08:30:06.578Z,2.60
2022-10-11T08:32:35.960Z,3.07
2022-10-11T08:35:04.990Z,3.53
2022-10-11T08:37:33.892Z,2.50
2022-10-11T08:40:03.651Z,3.00
2022-10-11T08:42:37.912Z,2.33
2022-10-11T08:45:12.048Z,3.40
2022-10-11T08:47:42.543Z,3.43
2022-10-11T08:50:25.452Z,2.47
2022-10-11T08:52:57.094Z,2.93
2022-10-11T08:55:29.487Z,2.60
2022-10-11T08:58:00.936Z,2.57
2022-10-11T09:00:33.201Z,2.33
2022-10-11T09:03:08.984Z,2.77
2022-10-11T09:05:51.249Z,2.37
2022-10-11T09:08:23.425Z,2.97
2022-10-11T09:11:01.745Z,2.77
2022-10-11T09:13:44.241Z,3.37
2022-10-11T09:16:19.826Z,2.70
2022-10-11T09:19:02.292Z,2.60
2022-10-11T09:21:39.674Z,2.80
2022-10-11T09:24:17.263Z,2.57
2022-10-11T09:26:52.968Z,2.37
2022-10-11T09:29:44.190Z,3.07
2022-10-11T09:32:16.447Z,2.37
2022-10-11T09:34:45.316Z,2.80
2022-10-11T09:37:19.985Z,2.83
2022-10-11T09:39:52.890Z,2.83
2022-10-11T09:42:22.096Z,3.00
2022-10-11T09:44:53.097Z,2.40
2022-10-11T09:47:24.205Z,2.60
2022-10-11T09:49:56.143Z,2.33
2022-10-11T09:52:26.151Z,2.70
2022-10-11T09:54:57.233Z,2.87
2022-10-11T09:57:28.200Z,2.27
2022-10-11T10:00:02.871Z,3.10
2022-10-11T10:02:47.110Z,3.10
2022-10-11T10:05:19.367Z,2.90
2022-10-11T10:08:09.815Z,3.03
2022-10-11T10:10:40.957Z,6.40
2022-10-11T10:13:22.601Z,5.33
2022-10-11T10:15:55.142Z,4.07
2022-10-11T10:18:28.113Z,3.57
2022-10-11T10:20:57.886Z,2.50
2022-10-11T10:23:29.792Z,2.50
2022-10-11T10:26:13.598Z,2.60
2022-10-11T10:28:57.286Z,3.03
2022-10-11T10:31:40.277Z,4.13
2022-10-11T10:34:23.804Z,3.20
2022-10-11T10:36:56.182Z,3.33
2022-10-11T10:39:28.768Z,2.87
2022-10-11T10:41:58.589Z,2.30
2022-10-11T10:44:27.520Z,2.83
2022-10-11T10:47:05.195Z,2.47
2022-10-11T10:49:53.621Z,2.67
2022-10-11T10:52:48.285Z,2.83
2022-10-11T10:55:25.328Z,2.50
2022-10-11T10:58:18.587Z,2.47
2022-10-11T11:00:50.376Z,2.43
2022-10-11T11:03:26.243Z,2.33
2022-10-11T11:06:02.664Z,2.60
2022-10-11T11:08:46.745Z,2.47
2022-10-11T11:11:28.196Z,2.73
2022-10-11T11:14:02.102Z,2.40
2022-10-11T11:16:35.944Z,2.17
2022-10-11T11:19:10.947Z,2.37
2022-10-11T11:21:45.483Z,3.07
2022-10-11T11:24:18.338Z,3.17
2022-10-11T11:26:51.275Z,2.73
2022-10-11T11:29:30.044Z,2.50
2022-10-11T11:32:10.655Z,2.20
2022-10-11T11:34:44.749Z,1.93
2022-10-11T11:37:22.396Z,1.63
2022-10-11T11:39:53.628Z,1.40
2022-10-11T11:42:25.904Z,2.47
2022-10-11T11:44:54.898Z,1.47
2022-10-11T11:47:29.811Z,1.47
2022-10-11T11:50:02.976Z,2.03
2022-10-11T11:52:37.697Z,1.60
2022-10-11T11:55:11.077Z,1.70
2022-10-11T11:57:50.322Z,4.80
2022-10-11T12:00:21.457Z,3.83
2022-10-11T12:02:55.188Z,1.80
2022-10-11T12:05:29.464Z,1.67
2022-10-11T12:08:00.166Z,2.43
2022-10-11T12:10:33.947Z,1.33
2022-10-11T12:13:18.019Z,1.73
2022-10-11T12:16:11.412Z,1.90
2022-10-11T12:18:52.729Z,1.43
2022-10-11T12:21:31.582Z,2.27
2022-10-11T12:24:01.709Z,1.80
2022-10-11T12:26:42.427Z,1.63
2022-10-11T12:29:45.836Z,1.57
2022-10-11T12:32:53.504Z,2.03
2022-10-11T12:36:02.681Z,2.20
2022-10-11T12:38:37.485Z,1.90
2022-10-11T12:41:39.830Z,1.70
2022-10-11T12:44:14.480Z,2.17
2022-10-11T12:47:13.422Z,2.57
2022-10-11T12:49:56.453Z,2.27
2022-10-11T12:52:31.191Z,2.10
2022-10-11T12:55:30.553Z,2.13
2022-10-11T12:58:38.438Z,1.97
2022-10-11T13:01:28.274Z,2.00
2022-10-11T13:04:02.698Z,1.83
2022-10-11T13:06:35.072Z,3.37
2022-10-11T13:09:07.341Z,3.37
2022-10-11T13:11:40.706Z,2.13
2022-10-11T13:14:12.904Z,2.43
2022-10-11T13:16:52.804Z,2.50
2022-10-11T13:19:24.847Z,2.50
2022-10-11T13:21:56.606Z,2.43
2022-10-11T13:24:26.888Z,2.07
2022-10-11T13:26:58.496Z,2.30
2022-10-11T13:29:33.973Z,2.20
2022-10-11T13:32:06.784Z,2.27
2022-10-11T13:34:39.310Z,2.67
2022-10-11T13:37:08.412Z,2.30
2022-10-11T13:39:39.350Z,2.10
2022-10-11T13:42:12.668Z,2.43
2022-10-11T13:44:42.310Z,2.47
2022-10-11T13:47:13.302Z,2.60
2022-10-11T13:49:46.233Z,2.43
2022-10-11T13:52:23.108Z,2.27
2022-10-11T13:54:57.637Z,1.90
2022-10-11T13:57:36.609Z,2.20
2022-10-11T14:00:11.207Z,2.30
2022-10-11T14:02:40.777Z,2.27
2022-10-11T14:05:19.978Z,2.13
2022-10-11T14:07:49.571Z,2.63
2022-10-11T14:10:22.298Z,2.33
2022-10-11T14:13:05.135Z,1.93
2022-10-11T14:15:35.399Z,1.83
2022-10-11T14:18:25.422Z,1.90
2022-10-11T14:20:53.956Z,1.97
2022-10-11T14:23:22.993Z,2.00
2022-10-11T14:25:53.979Z,1.73
2022-10-11T14:28:24.463Z,1.90
2022-10-11T14:30:53.311Z,1.90
2022-10-11T14:33:21.751Z,1.80
2022-10-11T14:35:50.820Z,1.87
2022-10-11T14:38:19.743Z,1.73
2022-10-11T14:40:48.527Z,1.97
2022-10-11T14:43:17.711Z,1.77
2022-10-11T14:45:48.072Z,2.70
2022-10-11T14:48:26.703Z,2.37
2022-10-11T14:51:06.541Z,2.03
2022-10-11T14:53:40.693Z,2.20
2022-10-11T14:56:10.015Z,2.40
2022-10-11T14:58:38.398Z,2.70
2022-10-11T15:01:10.720Z,2.33
2022-10-11T15:03:39.522Z,1.97
2022-10-11T15:06:09.493Z,2.30
2022-10-11T15:08:38.285Z,1.60
2022-10-11T15:11:07.154Z,1.80
2022-10-11T15:13:35.978Z,2.00
2022-10-11T15:16:04.911Z,2.93
2022-10-11T15:18:35.814Z,2.50
2022-10-11T15:21:04.684Z,2.83
2022-10-11T15:23:33.430Z,2.50
2022-10-11T15:26:02.512Z,2.77
2022-10-11T15:28:33.025Z,2.10
2022-10-11T15:31:01.842Z,2.23
2022-10-11T15:33:30.846Z,2.27
2022-10-11T15:36:00.971Z,2.50
2022-10-11T15:38:29.859Z,2.40
2022-10-11T15:40:59.992Z,2.23
2022-10-11T15:43:28.852Z,3.00
2022-10-11T15:45:58.776Z,2.50
2022-10-11T15:48:29.126Z,1.93
2022-10-11T15:50:58.875Z,2.70
2022-10-11T15:53:31.372Z,2.90
2022-10-11T15:56:03.170Z,3.20
2022-10-11T15:58:33.495Z,4.57
2022-10-11T16:01:06.602Z,2.57
2022-10-11T16:03:36.126Z,2.20
2022-10-11T16:06:06.338Z,2.57
2022-10-11T16:08:37.352Z,2.33
2022-10-11T16:11:07.529Z,2.00
2022-10-11T16:13:36.933Z,3.23
2022-10-11T16:16:07.617Z,4.83
2022-10-11T16:18:37.213Z,3.90
2022-10-11T16:21:08.755Z,2.80
2022-10-11T16:23:40.209Z,2.53
2022-10-11T16:26:10.982Z,2.33
2022-10-11T16:28:40.210Z,2.63
2022-10-11T16:31:09.863Z,3.37
2022-10-11T16:33:45.710Z,3.00
2022-10-11T16:36:36.514Z,3.83
2022-10-11T16:39:09.284Z,2.93
2022-10-11T16:41:37.749Z,2.97
2022-10-11T16:44:07.023Z,2.70
2022-10-11T16:46:36.063Z,2.30
2022-10-11T16:49:05.632Z,2.90
2022-10-11T16:51:34.357Z,2.40
2022-10-11T16:54:02.970Z,2.80
2022-10-11T16:56:37.409Z,3.10
2022-10-11T16:59:08.296Z,3.40
2022-10-11T17:01:37.821Z,3.43
2022-10-11T17:04:07.108Z,3.20
2022-10-11T17:06:35.951Z,2.63
2022-10-11T17:09:04.576Z,3.30
2022-10-11T17:11:35.049Z,2.80
2022-10-11T17:14:05.401Z,2.93
2022-10-11T17:16:34.110Z,3.37
2022-10-11T17:19:03.240Z,3.07
2022-10-11T17:21:31.928Z,3.00
2022-10-11T17:24:00.793Z,3.17
2022-10-11T17:26:29.302Z,2.27
2022-10-11T17:29:00.613Z,2.70
2022-10-11T17:31:29.975Z,2.47
2022-10-11T17:34:00.536Z,3.27
2022-10-11T17:36:32.113Z,2.97
2022-10-11T17:39:04.589Z,2.57
2022-10-11T17:41:33.662Z,3.10
2022-10-11T17:44:04.919Z,2.73
2022-10-11T17:46:34.088Z,2.67
2022-10-11T17:49:04.795Z,2.97
2022-10-11T17:51:34.625Z,2.80
2022-10-11T17:54:03.452Z,3.17
2022-10-11T17:56:37.387Z,3.50
2022-10-11T17:59:08.734Z,3.50
2022-10-11T18:01:37.677Z,4.00
2022-10-11T18:04:07.844Z,3.63
2022-10-11T18:06:40.651Z,3.93
2022-10-11T18:09:09.509Z,5.33
2022-10-11T18:11:38.534Z,6.40
2022-10-11T18:14:08.758Z,9.20
2022-10-11T18:16:38.883Z,9.03
2022-10-11T18:19:09.360Z,6.30
2022-10-11T18:21:38.217Z,5.03
2022-10-11T18:24:10.881Z,5.43
2022-10-11T18:26:40.038Z,4.63
2022-10-11T18:29:10.453Z,4.63
2022-10-11T18:31:39.183Z,5.10
2022-10-11T18:34:10.983Z,5.07
2022-10-11T18:36:40.392Z,4.40
2022-10-11T18:39:12.876Z,4.97
2022-10-11T18:41:44.503Z,5.80
2022-10-11T18:44:16.393Z,4.40
2022-10-11T18:46:46.141Z,4.00
2022-10-11T18:49:15.201Z,4.03
2022-10-11T18:51:48.046Z,4.57
2022-10-11T18:54:20.337Z,3.97
2022-10-11T18:56:50.990Z,5.37
2022-10-11T18:59:21.216Z,5.87
2022-10-11T19:01:52.425Z,4.80
2022-10-11T19:04:22.180Z,4.20
2022-10-11T19:06:52.641Z,4.13
2022-10-11T19:09:23.247Z,4.97
2022-10-11T19:11:53.544Z,4.37
2022-10-11T19:14:26.578Z,3.77
2022-10-11T19:16:55.767Z,3.47
2022-10-11T19:19:27.090Z,3.97
2022-10-11T19:21:56.040Z,4.10
2022-10-11T19:24:28.735Z,3.43
2022-10-11T19:27:02.244Z,3.30
2022-10-11T19:29:33.323Z,3.67
2022-10-11T19:32:03.643Z,3.20
2022-10-11T19:34:33.049Z,4.10
2022-10-11T19:37:03.734Z,3.20
2022-10-11T19:39:32.652Z,5.33
2022-10-11T19:42:01.968Z,3.87
2022-10-11T19:44:33.420Z,3.40
2022-10-11T19:47:06.347Z,3.07
2022-10-11T19:49:35.194Z,3.43
2022-10-11T19:52:03.961Z,3.57
2022-10-11T19:54:33.386Z,3.27
2022-10-11T19:57:02.169Z,3.20
2022-10-11T19:59:31.165Z,2.90
2022-10-11T20:02:01.395Z,2.50
2022-10-11T20:04:51.689Z,3.10
2022-10-11T20:07:20.906Z,2.87
2022-10-11T20:09:49.506Z,2.47
2022-10-11T20:12:18.359Z,3.00
2022-10-11T20:14:47.847Z,3.07
2022-10-11T20:17:16.869Z,2.53
2022-10-11T20:19:47.839Z,2.77
2022-10-11T20:22:18.408Z,4.07
2022-10-11T20:24:48.474Z,2.87
2022-10-11T20:27:17.975Z,3.63
2022-10-11T20:29:49.161Z,3.30
2022-10-11T20:32:19.480Z,3.50
2022-10-11T20:34:49.939Z,2.93
2022-10-11T20:37:19.342Z,2.80
2022-10-11T20:39:48.032Z,2.40
2022-10-11T20:42:18.435Z,2.63
2022-10-11T20:44:49.400Z,2.90
2022-10-11T20:47:18.318Z,2.50
2022-10-11T20:49:48.932Z,2.20
2022-10-11T20:52:17.806Z,2.40
2022-10-11T20:54:47.005Z,2.07
2022-10-11T20:57:16.239Z,2.27
2022-10-11T20:59:45.772Z,2.63
2022-10-11T21:02:18.789Z,2.40
2022-10-11T21:04:49.534Z,2.90
2022-10-11T21:07:19.349Z,2.30
2022-10-11T21:09:48.577Z,3.00
2022-10-11T21:12:17.096Z,3.13
2022-10-11T21:14:47.057Z,2.67
2022-10-11T21:17:16.302Z,3.07
2022-10-11T21:19:45.281Z,2.53
2022-10-11T21:22:15.927Z,2.30
2022-10-11T21:24:44.952Z,2.43
2022-10-11T21:27:13.787Z,3.10
2022-10-11T21:29:42.779Z,3.20
2022-10-11T21:32:14.376Z,3.60
2022-10-11T21:34:44.457Z,2.90
2022-10-11T21:37:15.608Z,2.87
2022-10-11T21:39:44.339Z,3.33
2022-10-11T21:42:14.127Z,2.90
2022-10-11T21:44:44.739Z,2.33
2022-10-11T21:47:14.229Z,2.87
2022-10-11T21:49:43.295Z,2.47
2022-10-11T21:52:12.078Z,2.60
2022-10-11T21:54:42.726Z,2.47
2022-10-11T21:57:12.462Z,2.70
2022-10-11T21:59:41.473Z,2.37
2022-10-11T22:02:12.539Z,2.90
2022-10-11T22:04:41.740Z,2.80
2022-10-11T22:07:10.863Z,3.47
2022-10-11T22:09:41.821Z,2.70
2022-10-11T22:12:11.416Z,2.40
2022-10-11T22:14:40.658Z,2.87
2022-10-11T22:17:09.541Z,2.60
2022-10-11T22:19:38.646Z,2.90
2022-10-11T22:22:09.286Z,3.57
2022-10-11T22:24:37.929Z,3.10
2022-10-11T22:27:09.140Z,2.80
2022-10-11T22:29:37.827Z,3.43
2022-10-11T22:32:07.195Z,2.93
2022-10-11T22:34:36.388Z,3.13
2022-10-11T22:37:05.892Z,2.53
2022-10-11T22:39:35.167Z,2.73
2022-10-11T22:42:04.979Z,2.97
2022-10-11T22:44:35.144Z,2.50
2022-10-11T22:47:04.375Z,3.17
2022-10-11T22:49:34.405Z,3.60
2022-10-11T22:52:03.504Z,3.67
2022-10-11T22:54:32.892Z,3.03
2022-10-11T22:57:02.206Z,3.20
2022-10-11T22:59:31.739Z,3.30
2022-10-11T23:02:02.180Z,3.53
2022-10-11T23:04:31.509Z,3.70
2022-10-11T23:07:04.924Z,3.90
2022-10-11T23:09:35.331Z,3.27
2022-10-11T23:12:04.758Z,3.43
2022-10-11T23:14:33.592Z,3.50
2022-10-11T23:17:04.066Z,3.40
2022-10-11T23:19:33.817Z,3.17
2022-10-11T23:22:03.062Z,3.50
2022-10-11T23:24:33.454Z,3.60
2022-10-11T23:27:03.201Z,3.13
2022-10-11T23:29:32.269Z,3.10
2022-10-11T23:32:01.460Z,3.73
2022-10-11T23:34:32.288Z,3.83
2022-10-11T23:37:02.111Z,3.17
2022-10-11T23:39:31.185Z,2.93
2022-10-11T23:42:00.898Z,3.20
2022-10-11T23:44:30.674Z,3.20
2022-10-11T23:46:59.655Z,3.17
2022-10-11T23:49:28.906Z,2.73
2022-10-11T23:51:59.400Z,2.47
2022-10-11T23:54:28.554Z,2.83
2022-10-11T23:56:58.048Z,3.40
2022-10-11T23:59:27.429Z,3.00
